Time;durP1;ratioP1;P1;durP2;ratioP2;P2;SDS_P1;SDS_P2;PMS_P1;PMS_P2;Temp;Humidity;BMP_temperature;BMP_pressure;BME280_temperature;BME280_humidity;BME280_pressure;Samples;Min_cycle;Max_cycle;Signal;HPM_P1;HPM_P2
2022/10/08 00:00:31;;;;;;;;;;;12.00;87.20;;;;;;5035115;28;20059;-72
2022/10/08 00:02:58;;;;;;;;;;;12.00;87.20;;;;;;5042416;28;19928;-70
2022/10/08 00:05:24;;;;;;;;;;;12.00;87.20;;;;;;5043479;28;19940;-70
2022/10/08 00:07:51;;;;;;;;;;;12.00;87.10;;;;;;5039636;28;19940;-71
2022/10/08 00:10:22;;;;;;;;;;;12.00;87.10;;;;;;5036907;28;20363;-71
2022/10/08 00:12:49;;;;;;;;;;;12.00;87.10;;;;;;5039023;28;19935;-72
2022/10/08 00:15:16;;;;;;;;;;;12.00;87.10;;;;;;5027318;28;19940;-72
2022/10/08 00:17:43;;;;;;;;;;;12.00;87.10;;;;;;5017519;28;20421;-72
2022/10/08 00:20:10;;;;;;;;;;;12.00;87.10;;;;;;5018781;28;20429;-71
2022/10/08 00:22:37;;;;;;;;;;;11.90;87.10;;;;;;5019247;28;19937;-71
2022/10/08 00:25:04;;;;;;;;;;;12.00;87.00;;;;;;5012394;28;20391;-71
2022/10/08 00:27:34;;;;;;;;;;;12.00;87.10;;;;;;5016360;28;20390;-71
2022/10/08 00:30:01;;;;;;;;;;;12.00;87.20;;;;;;5017213;28;19933;-72
2022/10/08 00:32:29;;;;;;;;;;;12.00;87.30;;;;;;5014347;28;19936;-71
2022/10/08 00:34:55;;;;;;;;;;;11.90;87.50;;;;;;5025806;28;19929;-72
2022/10/08 00:37:24;;;;;;;;;;;11.90;87.60;;;;;;5020838;28;19940;-72
2022/10/08 00:39:51;;;;;;;;;;;11.90;87.80;;;;;;5018249;28;20014;-72
2022/10/08 00:42:18;;;;;;;;;;;11.90;88.00;;;;;;5028122;28;20272;-71
2022/10/08 00:44:54;;;;;;;;;;;11.90;88.00;;;;;;5027068;28;19928;-71
2022/10/08 00:47:25;;;;;;;;;;;11.90;88.10;;;;;;5014040;28;20299;-71
2022/10/08 00:49:58;;;;;;;;;;;11.90;88.00;;;;;;5031026;28;19925;-70
2022/10/08 00:52:26;;;;;;;;;;;11.80;88.00;;;;;;5021189;28;19934;-71
2022/10/08 00:54:55;;;;;;;;;;;11.80;88.10;;;;;;5020520;28;19933;-71
2022/10/08 00:57:22;;;;;;;;;;;11.90;88.00;;;;;;5003706;28;20800;-71
2022/10/08 00:59:49;;;;;;;;;;;11.90;88.00;;;;;;5034819;28;19929;-72
2022/10/08 01:02:18;;;;;;;;;;;11.90;87.90;;;;;;5045833;28;19933;-70
2022/10/08 01:04:45;;;;;;;;;;;11.90;87.80;;;;;;5040094;28;19948;-72
2022/10/08 01:07:15;;;;;;;;;;;11.90;87.90;;;;;;5029386;28;19931;-70
2022/10/08 01:09:45;;;;;;;;;;;11.90;87.90;;;;;;5036584;28;19929;-71
2022/10/08 01:12:18;;;;;;;;;;;11.90;88.00;;;;;;5037990;28;19929;-70
2022/10/08 01:14:49;;;;;;;;;;;11.90;88.00;;;;;;5036710;28;19925;-72
2022/10/08 01:17:23;;;;;;;;;;;11.80;88.10;;;;;;5040118;28;19933;-72
2022/10/08 01:20:07;;;;;;;;;;;11.90;88.00;;;;;;5039143;28;19968;-71
2022/10/08 01:22:38;;;;;;;;;;;11.90;88.00;;;;;;5010223;28;19933;-72
2022/10/08 01:28:02;;;;;;;;;;;12.00;87.90;;;;;;5016738;28;20375;-72
2022/10/08 01:30:32;;;;;;;;;;;11.90;87.90;;;;;;5016505;28;19934;-72
2022/10/08 01:33:00;;;;;;;;;;;11.90;88.00;;;;;;5018240;28;20469;-71
2022/10/08 01:35:29;;;;;;;;;;;11.90;87.90;;;;;;5020273;28;19983;-73
2022/10/08 01:37:59;;;;;;;;;;;11.90;87.90;;;;;;5032374;28;20418;-71
2022/10/08 01:40:28;;;;;;;;;;;11.90;88.00;;;;;;5041883;28;20332;-72
2022/10/08 01:42:55;;;;;;;;;;;11.90;88.10;;;;;;5037643;28;19925;-71
2022/10/08 01:45:26;;;;;;;;;;;11.90;88.00;;;;;;5038499;28;19937;-72
2022/10/08 01:47:54;;;;;;;;;;;11.90;88.00;;;;;;5033206;28;19936;-72
2022/10/08 01:50:23;;;;;;;;;;;11.90;88.00;;;;;;5039127;28;19924;-72
2022/10/08 01:52:51;;;;;;;;;;;11.90;88.00;;;;;;5042175;28;19932;-71
2022/10/08 01:55:21;;;;;;;;;;;11.90;88.10;;;;;;5035017;28;19929;-73
2022/10/08 01:57:49;;;;;;;;;;;11.90;88.10;;;;;;5042638;28;20337;-71
2022/10/08 02:00:17;;;;;;;;;;;11.90;88.00;;;;;;5040345;28;19925;-71
2022/10/08 02:02:45;;;;;;;;;;;11.90;88.00;;;;;;5038776;28;19925;-73
2022/10/08 02:05:12;;;;;;;;;;;11.90;88.00;;;;;;5040599;28;19935;-71
2022/10/08 02:07:40;;;;;;;;;;;11.90;88.10;;;;;;5038917;28;19929;-71
2022/10/08 02:10:08;;;;;;;;;;;11.90;88.10;;;;;;5039914;28;20375;-71
2022/10/08 02:12:36;;;;;;;;;;;11.90;88.10;;;;;;5041717;28;20387;-70
2022/10/08 02:15:04;;;;;;;;;;;11.90;88.10;;;;;;5033852;28;19933;-72
2022/10/08 02:17:38;;;;;;;;;;;11.90;88.10;;;;;;5040738;28;20054;-70
2022/10/08 02:20:11;;;;;;;;;;;11.90;88.20;;;;;;5038245;28;19929;-71
2022/10/08 02:22:39;;;;;;;;;;;11.90;88.20;;;;;;5039462;28;19968;-71
2022/10/08 02:25:09;;;;;;;;;;;11.90;88.20;;;;;;5038330;28;19933;-72
2022/10/08 02:27:42;;;;;;;;;;;11.90;88.20;;;;;;5044413;28;19932;-72
2022/10/08 02:30:13;;;;;;;;;;;11.90;88.20;;;;;;5043063;28;19925;-71
2022/10/08 02:32:45;;;;;;;;;;;11.90;88.20;;;;;;5036222;28;19928;-71
2022/10/08 02:35:16;;;;;;;;;;;11.90;88.20;;;;;;5044078;28;19933;-72
2022/10/08 02:37:45;;;;;;;;;;;11.90;88.30;;;;;;5042010;28;20011;-70
2022/10/08 02:40:13;;;;;;;;;;;11.90;88.20;;;;;;5042896;28;19936;-71
2022/10/08 02:42:42;;;;;;;;;;;11.90;88.30;;;;;;5030153;28;20233;-70
2022/10/08 02:45:15;;;;;;;;;;;11.90;88.20;;;;;;5033744;28;19929;-71
2022/10/08 02:47:43;;;;;;;;;;;11.90;88.10;;;;;;5020670;28;20017;-70
2022/10/08 02:50:12;;;;;;;;;;;11.90;88.10;;;;;;5018120;28;19940;-71
2022/10/08 02:52:41;;;;;;;;;;;11.90;88.10;;;;;;5025798;28;19925;-71
2022/10/08 02:55:12;;;;;;;;;;;11.90;87.90;;;;;;5024037;28;19929;-71
2022/10/08 02:57:41;;;;;;;;;;;11.90;88.00;;;;;;5025858;28;19929;-70
2022/10/08 03:00:10;;;;;;;;;;;11.90;88.00;;;;;;5044636;28;19929;-71
2022/10/08 03:02:39;;;;;;;;;;;11.90;88.10;;;;;;5027107;28;19933;-71
2022/10/08 03:05:12;;;;;;;;;;;11.90;88.10;;;;;;5043722;28;20043;-70
2022/10/08 03:07:40;;;;;;;;;;;11.90;88.10;;;;;;5044144;28;19924;-72
2022/10/08 03:10:07;;;;;;;;;;;11.90;88.00;;;;;;5041387;28;20302;-70
2022/10/08 03:12:34;;;;;;;;;;;11.90;87.90;;;;;;5046355;28;19936;-70
2022/10/08 03:15:01;;;;;;;;;;;11.90;87.70;;;;;;5044145;28;19983;-71
2022/10/08 03:17:37;;;;;;;;;;;11.90;87.80;;;;;;5046191;28;19928;-72
2022/10/08 03:20:05;;;;;;;;;;;11.90;87.90;;;;;;5045347;28;19924;-70
2022/10/08 03:22:33;;;;;;;;;;;11.80;87.90;;;;;;5045391;28;19928;-70
2022/10/08 03:25:01;;;;;;;;;;;11.80;87.90;;;;;;5045448;28;20488;-72
2022/10/08 03:27:28;;;;;;;;;;;11.80;87.90;;;;;;5037982;28;19951;-71
2022/10/08 03:29:56;;;;;;;;;;;11.80;88.00;;;;;;5045309;28;19933;-71
2022/10/08 03:32:23;;;;;;;;;;;11.70;88.10;;;;;;5044479;28;19932;-71
2022/10/08 03:34:50;;;;;;;;;;;11.70;88.10;;;;;;5045193;28;19940;-72
2022/10/08 03:37:18;;;;;;;;;;;11.70;88.10;;;;;;5039747;28;19936;-72
2022/10/08 03:39:44;;;;;;;;;;;11.70;88.00;;;;;;5044843;28;20394;-71
2022/10/08 03:42:14;;;;;;;;;;;11.70;88.00;;;;;;5045897;28;19937;-70
2022/10/08 03:44:40;;;;;;;;;;;11.70;88.00;;;;;;5047332;28;19925;-71
2022/10/08 03:47:07;;;;;;;;;;;11.70;87.90;;;;;;5046585;28;19932;-70
2022/10/08 03:49:34;;;;;;;;;;;11.70;87.90;;;;;;5036894;28;19929;-71
2022/10/08 03:52:01;;;;;;;;;;;11.70;87.80;;;;;;5034375;28;20282;-72
2022/10/08 03:54:30;;;;;;;;;;;11.70;87.90;;;;;;5047909;28;19933;-72
2022/10/08 03:56:56;;;;;;;;;;;11.60;87.90;;;;;;5031314;28;20015;-70
2022/10/08 03:59:24;;;;;;;;;;;11.60;88.00;;;;;;5042508;28;20365;-72
2022/10/08 04:01:51;;;;;;;;;;;11.60;88.00;;;;;;5041545;28;19996;-70
2022/10/08 04:04:18;;;;;;;;;;;11.60;87.90;;;;;;5038578;28;19987;-70
2022/10/08 04:06:44;;;;;;;;;;;11.60;87.80;;;;;;5023117;28;20344;-70
2022/10/08 04:09:11;;;;;;;;;;;11.60;87.80;;;;;;5042046;28;20395;-69
2022/10/08 04:11:38;;;;;;;;;;;11.50;87.80;;;;;;5043465;28;19976;-70
2022/10/08 04:14:05;;;;;;;;;;;11.50;87.90;;;;;;5039154;28;19937;-70
2022/10/08 04:16:33;;;;;;;;;;;11.60;87.80;;;;;;5039339;28;19926;-71
2022/10/08 04:18:59;;;;;;;;;;;11.50;87.80;;;;;;5029956;28;19932;-70
2022/10/08 04:21:26;;;;;;;;;;;11.50;87.80;;;;;;5043730;28;19929;-71
2022/10/08 04:23:53;;;;;;;;;;;11.50;87.70;;;;;;5042623;28;19932;-73
2022/10/08 04:26:20;;;;;;;;;;;11.50;87.70;;;;;;5040521;28;19929;-70
2022/10/08 04:28:48;;;;;;;;;;;11.40;87.70;;;;;;5036511;28;20055;-72
2022/10/08 04:31:16;;;;;;;;;;;11.40;87.60;;;;;;5039235;28;19925;-70
2022/10/08 04:33:45;;;;;;;;;;;11.40;87.60;;;;;;5041290;28;19935;-71
2022/10/08 04:36:13;;;;;;;;;;;11.40;87.70;;;;;;5040649;28;19925;-71
2022/10/08 04:38:41;;;;;;;;;;;11.40;87.70;;;;;;5039967;28;20374;-71
2022/10/08 04:41:09;;;;;;;;;;;11.40;87.60;;;;;;5044532;28;20349;-71
2022/10/08 04:43:36;;;;;;;;;;;11.40;87.60;;;;;;5015176;28;20276;-71
2022/10/08 04:46:03;;;;;;;;;;;11.40;87.60;;;;;;5038250;28;19936;-70
2022/10/08 04:48:30;;;;;;;;;;;11.30;87.60;;;;;;5043683;28;19932;-70
2022/10/08 04:51:00;;;;;;;;;;;11.30;87.70;;;;;;5042483;28;19929;-71
2022/10/08 04:53:28;;;;;;;;;;;11.30;87.70;;;;;;5035043;28;20375;-72
2022/10/08 04:55:55;;;;;;;;;;;11.30;87.60;;;;;;5040948;28;19960;-72
2022/10/08 04:58:22;;;;;;;;;;;11.30;87.70;;;;;;5042572;28;20448;-71
2022/10/08 05:00:49;;;;;;;;;;;11.30;87.70;;;;;;5041584;28;20394;-71
2022/10/08 05:03:18;;;;;;;;;;;11.30;87.60;;;;;;5042824;28;19925;-72
2022/10/08 05:05:45;;;;;;;;;;;11.30;87.60;;;;;;5042064;28;19940;-71
2022/10/08 05:08:13;;;;;;;;;;;11.30;87.50;;;;;;5041410;28;19928;-70
2022/10/08 05:10:47;;;;;;;;;;;11.30;87.40;;;;;;5035128;28;20702;-72
2022/10/08 05:13:13;;;;;;;;;;;11.30;87.40;;;;;;5041106;28;19936;-71
2022/10/08 05:15:40;;;;;;;;;;;11.30;87.40;;;;;;5041011;28;19936;-71
2022/10/08 05:18:07;;;;;;;;;;;11.20;87.40;;;;;;5040270;28;19928;-70
2022/10/08 05:20:35;;;;;;;;;;;11.10;87.40;;;;;;5022549;28;19933;-71
2022/10/08 05:23:02;;;;;;;;;;;11.10;87.40;;;;;;5038918;28;19935;-71
2022/10/08 05:25:31;;;;;;;;;;;11.20;87.30;;;;;;5014441;28;20334;-71
2022/10/08 05:27:58;;;;;;;;;;;11.20;87.20;;;;;;5044762;28;20251;-70
2022/10/08 05:30:25;;;;;;;;;;;11.10;87.20;;;;;;5011738;28;19932;-71
2022/10/08 05:32:51;;;;;;;;;;;11.10;87.10;;;;;;5022420;28;20367;-70
2022/10/08 05:35:18;;;;;;;;;;;11.10;87.00;;;;;;5023544;28;20379;-72
2022/10/08 05:37:45;;;;;;;;;;;11.00;87.00;;;;;;5020306;28;19925;-70
2022/10/08 05:40:11;;;;;;;;;;;11.00;87.00;;;;;;5020971;28;19936;-71
2022/10/08 05:42:39;;;;;;;;;;;10.90;87.10;;;;;;5031136;28;20472;-70
2022/10/08 05:45:06;;;;;;;;;;;10.90;87.00;;;;;;5040425;28;19987;-71
2022/10/08 05:47:33;;;;;;;;;;;10.90;86.90;;;;;;5035861;28;19932;-71
2022/10/08 05:50:00;;;;;;;;;;;11.00;86.90;;;;;;5040930;28;19925;-71
2022/10/08 05:52:26;;;;;;;;;;;10.90;86.80;;;;;;5040092;28;19933;-71
2022/10/08 05:54:53;;;;;;;;;;;10.90;86.80;;;;;;5043760;28;19929;-72
2022/10/08 05:57:20;;;;;;;;;;;10.90;86.80;;;;;;5038927;28;19928;-72
2022/10/08 05:59:48;;;;;;;;;;;10.90;86.80;;;;;;5040296;28;19941;-71
2022/10/08 06:02:15;;;;;;;;;;;10.90;86.80;;;;;;5037731;28;19928;-71
2022/10/08 06:04:42;;;;;;;;;;;10.90;86.80;;;;;;5041881;28;19932;-71
2022/10/08 06:07:09;;;;;;;;;;;10.90;86.90;;;;;;5041607;28;19945;-70
2022/10/08 06:09:35;;;;;;;;;;;10.90;87.00;;;;;;5041666;28;19928;-69
2022/10/08 06:12:05;;;;;;;;;;;10.90;87.00;;;;;;5039314;28;19936;-69
2022/10/08 06:14:32;;;;;;;;;;;10.90;87.00;;;;;;5043937;28;19929;-71
2022/10/08 06:17:00;;;;;;;;;;;10.90;87.00;;;;;;5036022;28;19929;-71
2022/10/08 06:19:28;;;;;;;;;;;10.90;87.10;;;;;;5036095;28;19924;-71
2022/10/08 06:21:54;;;;;;;;;;;10.80;87.30;;;;;;5035739;28;20381;-72
2022/10/08 06:24:21;;;;;;;;;;;10.80;87.40;;;;;;5039088;28;20445;-71
2022/10/08 06:26:48;;;;;;;;;;;10.80;87.40;;;;;;5042756;28;20530;-72
2022/10/08 06:29:15;;;;;;;;;;;10.90;87.40;;;;;;5043868;28;19951;-72
2022/10/08 06:31:42;;;;;;;;;;;10.90;87.30;;;;;;5044036;28;20375;-71
2022/10/08 06:34:10;;;;;;;;;;;10.80;87.40;;;;;;5037460;28;20011;-72
2022/10/08 06:36:37;;;;;;;;;;;10.90;87.30;;;;;;5045103;28;20011;-72
2022/10/08 06:39:05;;;;;;;;;;;11.00;87.30;;;;;;5046913;28;19925;-71
2022/10/08 06:41:33;;;;;;;;;;;11.00;87.30;;;;;;5045737;28;19936;-72
2022/10/08 06:44:00;;;;;;;;;;;11.00;87.40;;;;;;5045129;28;20416;-71
2022/10/08 06:46:29;;;;;;;;;;;10.90;87.40;;;;;;5041563;28;19928;-70
2022/10/08 06:48:57;;;;;;;;;;;10.90;87.50;;;;;;5042746;28;20885;-71
2022/10/08 06:51:25;;;;;;;;;;;10.90;87.40;;;;;;5017673;28;20341;-72
2022/10/08 06:53:52;;;;;;;;;;;11.00;87.40;;;;;;5025096;28;19932;-71
2022/10/08 06:56:19;;;;;;;;;;;11.00;87.30;;;;;;5043158;28;19936;-71
2022/10/08 06:58:48;;;;;;;;;;;11.10;87.30;;;;;;5046310;28;21545;-70
2022/10/08 07:01:15;;;;;;;;;;;11.00;87.30;;;;;;5040394;28;19928;-70
2022/10/08 07:03:42;;;;;;;;;;;11.00;87.40;;;;;;5040208;28;19928;-69
2022/10/08 07:06:10;;;;;;;;;;;11.10;87.40;;;;;;5030390;28;19990;-70
2022/10/08 07:08:38;;;;;;;;;;;11.10;87.60;;;;;;5040638;28;19960;-71
2022/10/08 07:11:05;;;;;;;;;;;11.10;87.60;;;;;;5045258;28;19929;-72
2022/10/08 07:13:32;;;;;;;;;;;11.10;87.60;;;;;;5039165;28;19949;-70
2022/10/08 07:16:02;;;;;;;;;;;11.10;87.70;;;;;;5041670;28;19987;-72
2022/10/08 07:18:29;;;;;;;;;;;11.10;87.80;;;;;;5038900;28;19932;-71
2022/10/08 07:20:56;;;;;;;;;;;11.10;87.80;;;;;;5043717;28;19925;-71
2022/10/08 07:23:22;;;;;;;;;;;11.10;88.00;;;;;;5043949;28;19933;-71
2022/10/08 07:25:56;;;;;;;;;;;11.10;88.10;;;;;;5042935;28;19933;-71
2022/10/08 07:28:23;;;;;;;;;;;11.10;88.00;;;;;;5047066;28;19925;-70
2022/10/08 07:30:49;;;;;;;;;;;11.20;88.20;;;;;;5043058;28;19932;-71
2022/10/08 07:33:16;;;;;;;;;;;11.20;87.90;;;;;;5042290;28;19936;-71
2022/10/08 07:35:43;;;;;;;;;;;11.30;87.90;;;;;;5023944;28;19928;-72
2022/10/08 07:38:11;;;;;;;;;;;11.30;87.70;;;;;;5017974;28;19936;-71
2022/10/08 07:40:37;;;;;;;;;;;11.40;87.50;;;;;;5046157;28;20729;-72
2022/10/08 07:43:06;;;;;;;;;;;11.60;87.10;;;;;;5044873;28;19925;-71
2022/10/08 07:45:33;;;;;;;;;;;11.60;87.70;;;;;;5044286;28;19936;-70
2022/10/08 07:48:00;;;;;;;;;;;11.70;88.40;;;;;;5034084;28;20386;-69
2022/10/08 07:50:26;;;;;;;;;;;11.70;87.80;;;;;;5041113;28;20289;-72
2022/10/08 07:52:55;;;;;;;;;;;11.70;87.90;;;;;;5042854;28;20279;-72
2022/10/08 07:55:22;;;;;;;;;;;11.80;87.90;;;;;;5041659;28;19925;-71
2022/10/08 07:57:49;;;;;;;;;;;11.80;88.10;;;;;;5045123;28;19986;-71
2022/10/08 08:00:17;;;;;;;;;;;11.80;88.30;;;;;;5044207;28;19935;-77
2022/10/08 08:02:44;;;;;;;;;;;11.90;88.10;;;;;;5025712;28;19931;-77
2022/10/08 08:05:10;;;;;;;;;;;12.00;88.70;;;;;;5036477;28;20037;-75
2022/10/08 08:07:37;;;;;;;;;;;12.00;88.40;;;;;;5033295;28;19937;-76
2022/10/08 08:10:04;;;;;;;;;;;12.10;88.50;;;;;;5025626;28;19937;-77
2022/10/08 08:12:31;;;;;;;;;;;12.20;88.30;;;;;;5022479;28;20412;-77
2022/10/08 08:14:58;;;;;;;;;;;12.20;88.20;;;;;;5018999;28;19929;-77
2022/10/08 08:17:26;;;;;;;;;;;12.30;87.90;;;;;;5023202;28;19929;-76
2022/10/08 08:19:54;;;;;;;;;;;12.30;87.60;;;;;;5024459;28;19929;-77
2022/10/08 08:22:21;;;;;;;;;;;12.30;87.40;;;;;;5018047;28;20024;-76
2022/10/08 08:24:48;;;;;;;;;;;12.30;87.30;;;;;;5023320;28;19929;-75
2022/10/08 08:27:15;;;;;;;;;;;12.40;87.30;;;;;;5026023;28;20410;-76
2022/10/08 08:29:42;;;;;;;;;;;12.50;87.20;;;;;;5022157;28;19933;-75
2022/10/08 08:32:09;;;;;;;;;;;12.50;86.70;;;;;;5015213;28;20368;-76
2022/10/08 08:34:38;;;;;;;;;;;12.60;86.70;;;;;;5017302;28;19975;-75
2022/10/08 08:37:05;;;;;;;;;;;12.70;86.60;;;;;;5020365;28;19948;-75
2022/10/08 08:39:32;;;;;;;;;;;12.80;86.50;;;;;;5020788;28;20118;-77
2022/10/08 08:42:14;;;;;;;;;;;12.90;85.80;;;;;;5020678;28;19925;-75
2022/10/08 08:44:41;;;;;;;;;;;12.90;85.70;;;;;;5019951;28;19929;-74
2022/10/08 08:47:13;;;;;;;;;;;13.00;85.50;;;;;;5021875;28;19925;-73
2022/10/08 08:49:42;;;;;;;;;;;13.20;85.20;;;;;;5023107;28;19933;-76
2022/10/08 08:52:11;;;;;;;;;;;13.20;84.50;;;;;;5024024;28;20376;-76
2022/10/08 08:54:37;;;;;;;;;;;13.30;84.20;;;;;;5028159;28;19929;-74
2022/10/08 08:57:11;;;;;;;;;;;13.50;83.40;;;;;;5029473;28;19933;-76
2022/10/08 08:59:41;;;;;;;;;;;13.60;83.30;;;;;;5044403;28;19929;-75
2022/10/08 09:02:14;;;;;;;;;;;13.70;83.40;;;;;;5015115;28;19952;-76
2022/10/08 09:04:44;;;;;;;;;;;13.90;82.70;;;;;;5038975;28;19952;-76
2022/10/08 09:07:12;;;;;;;;;;;14.10;82.40;;;;;;5041060;28;20078;-75
2022/10/08 09:09:42;;;;;;;;;;;14.20;81.90;;;;;;5040308;28;19937;-76
2022/10/08 09:12:14;;;;;;;;;;;14.10;81.60;;;;;;5042404;28;19924;-75
2022/10/08 09:14:43;;;;;;;;;;;14.10;81.80;;;;;;5042049;28;20245;-75
2022/10/08 09:17:15;;;;;;;;;;;14.10;81.40;;;;;;5005389;28;19929;-74
2022/10/08 09:19:43;;;;;;;;;;;14.30;81.20;;;;;;5020072;28;19984;-76
2022/10/08 09:22:18;;;;;;;;;;;14.60;80.70;;;;;;5012904;28;19975;-76
2022/10/08 09:24:46;;;;;;;;;;;14.70;79.80;;;;;;5022690;28;20040;-76
2022/10/08 09:27:14;;;;;;;;;;;14.70;79.60;;;;;;5015580;28;19925;-77
2022/10/08 09:29:40;;;;;;;;;;;14.70;79.40;;;;;;5015801;28;19933;-76
2022/10/08 09:32:14;;;;;;;;;;;14.70;79.80;;;;;;5025352;28;20421;-74
2022/10/08 09:34:42;;;;;;;;;;;14.60;79.50;;;;;;5018950;28;19998;-75
2022/10/08 09:37:14;;;;;;;;;;;14.70;78.90;;;;;;5019366;28;20387;-75
2022/10/08 09:40:01;;;;;;;;;;;14.60;79.00;;;;;;5020875;28;19926;-74
2022/10/08 09:42:29;;;;;;;;;;;14.60;78.90;;;;;;5020218;28;19933;-75
2022/10/08 09:44:57;;;;;;;;;;;14.60;78.70;;;;;;5025889;28;19928;-77
2022/10/08 09:47:25;;;;;;;;;;;14.50;78.70;;;;;;5022738;28;19951;-75
2022/10/08 09:50:08;;;;;;;;;;;14.50;79.20;;;;;;5037396;28;20395;-73
2022/10/08 09:52:36;;;;;;;;;;;14.50;79.20;;;;;;5040198;28;19932;-75
2022/10/08 09:55:07;;;;;;;;;;;14.50;78.90;;;;;;5040708;28;19981;-74
2022/10/08 09:57:35;;;;;;;;;;;14.60;78.90;;;;;;5038104;28;19944;-75
2022/10/08 10:00:10;;;;;;;;;;;14.60;78.80;;;;;;5043897;28;19932;-76
2022/10/08 10:02:37;;;;;;;;;;;14.60;79.00;;;;;;5044019;28;19925;-74
2022/10/08 10:05:05;;;;;;;;;;;14.60;78.90;;;;;;5034640;28;19937;-75
2022/10/08 10:07:38;;;;;;;;;;;14.70;78.90;;;;;;5037372;28;20548;-73
2022/10/08 10:10:09;;;;;;;;;;;14.60;78.90;;;;;;5044548;28;19929;-72
2022/10/08 10:12:39;;;;;;;;;;;14.60;78.70;;;;;;5046224;28;20013;-75
2022/10/08 10:15:10;;;;;;;;;;;14.60;78.80;;;;;;5042512;28;20298;-74
2022/10/08 10:17:44;;;;;;;;;;;14.60;79.10;;;;;;5041924;28;19933;-74
2022/10/08 10:20:16;;;;;;;;;;;14.60;79.10;;;;;;5037282;28;19948;-74
2022/10/08 10:22:47;;;;;;;;;;;14.60;78.90;;;;;;5045517;28;19932;-74
2022/10/08 10:25:18;;;;;;;;;;;14.60;78.90;;;;;;5043131;28;19933;-73
2022/10/08 10:27:47;;;;;;;;;;;14.60;78.70;;;;;;5044905;28;19964;-74
2022/10/08 10:30:16;;;;;;;;;;;14.60;78.80;;;;;;5044770;28;19929;-72
2022/10/08 10:32:45;;;;;;;;;;;14.60;78.60;;;;;;5045584;28;20072;-74
2022/10/08 10:35:14;;;;;;;;;;;14.60;78.60;;;;;;5032459;28;19929;-74
2022/10/08 10:37:45;;;;;;;;;;;14.60;78.90;;;;;;5041152;28;19933;-75
2022/10/08 10:40:30;;;;;;;;;;;14.60;79.00;;;;;;5044391;28;19929;-73
2022/10/08 10:43:15;;;;;;;;;;;14.50;78.80;;;;;;5041908;28;19933;-74
2022/10/08 10:45:47;;;;;;;;;;;14.40;78.40;;;;;;5034175;28;19937;-72
2022/10/08 10:48:14;;;;;;;;;;;14.40;78.60;;;;;;5041620;28;19925;-75
2022/10/08 10:50:43;;;;;;;;;;;14.40;78.30;;;;;;5037335;28;19952;-74
2022/10/08 10:53:15;;;;;;;;;;;14.50;78.40;;;;;;5032178;28;20290;-73
2022/10/08 10:55:51;;;;;;;;;;;14.50;78.40;;;;;;5043855;28;20022;-75
2022/10/08 10:58:24;;;;;;;;;;;14.60;78.30;;;;;;5040520;28;19925;-75
2022/10/08 11:00:57;;;;;;;;;;;14.60;78.30;;;;;;5038691;28;19940;-76
2022/10/08 11:03:28;;;;;;;;;;;14.60;78.40;;;;;;5031247;28;19940;-74
2022/10/08 11:06:01;;;;;;;;;;;14.60;78.50;;;;;;5042269;28;19932;-74
2022/10/08 11:08:35;;;;;;;;;;;14.60;78.60;;;;;;5042674;28;19933;-75
2022/10/08 11:11:13;;;;;;;;;;;14.60;78.50;;;;;;5046253;28;19924;-75
2022/10/08 11:13:47;;;;;;;;;;;14.60;78.70;;;;;;5041982;28;19932;-74
2022/10/08 11:16:21;;;;;;;;;;;14.70;78.70;;;;;;5032357;28;20354;-75
2022/10/08 11:18:50;;;;;;;;;;;14.70;78.90;;;;;;5049089;28;20397;-75
2022/10/08 11:21:25;;;;;;;;;;;14.70;78.90;;;;;;5042490;28;19952;-75
2022/10/08 11:24:00;;;;;;;;;;;14.70;78.60;;;;;;5043774;28;19925;-74
2022/10/08 11:26:33;;;;;;;;;;;14.70;78.60;;;;;;5041834;28;20008;-74
2022/10/08 11:29:06;;;;;;;;;;;14.70;78.80;;;;;;5025762;28;19974;-75
2022/10/08 11:31:38;;;;;;;;;;;14.70;78.50;;;;;;5039987;28;19936;-74
2022/10/08 11:34:05;;;;;;;;;;;14.70;78.50;;;;;;5038667;28;19924;-72
2022/10/08 11:36:37;;;;;;;;;;;14.80;78.30;;;;;;5039040;28;19932;-75
2022/10/08 11:39:06;;;;;;;;;;;14.90;78.40;;;;;;5041641;28;19928;-74
2022/10/08 11:41:37;;;;;;;;;;;15.00;78.20;;;;;;5040494;28;20469;-73
2022/10/08 11:44:07;;;;;;;;;;;15.00;78.30;;;;;;5044261;28;19995;-73
2022/10/08 11:46:35;;;;;;;;;;;15.10;78.40;;;;;;5044412;28;19925;-74
2022/10/08 11:49:25;;;;;;;;;;;15.10;78.50;;;;;;5039016;28;19972;-76
2022/10/08 11:51:52;;;;;;;;;;;15.00;79.00;;;;;;5039120;28;19964;-75
2022/10/08 11:54:25;;;;;;;;;;;14.90;79.30;;;;;;5046492;28;19936;-75
2022/10/08 11:57:06;;;;;;;;;;;14.80;79.70;;;;;;5039824;28;19933;-76
2022/10/08 11:59:38;;;;;;;;;;;14.80;80.10;;;;;;5021674;28;20453;-71
2022/10/08 12:02:06;;;;;;;;;;;14.60;80.40;;;;;;5040430;28;20007;-70
2022/10/08 12:04:34;;;;;;;;;;;14.60;80.60;;;;;;5014553;28;19951;-71
2022/10/08 12:07:06;;;;;;;;;;;14.60;80.80;;;;;;5041122;28;20382;-71
2022/10/08 12:09:51;;;;;;;;;;;14.60;81.00;;;;;;5040423;28;19972;-72
2022/10/08 12:12:18;;;;;;;;;;;14.60;81.00;;;;;;5035372;28;19928;-71
2022/10/08 12:14:51;;;;;;;;;;;14.60;81.10;;;;;;5039126;28;20395;-72
2022/10/08 12:17:18;;;;;;;;;;;14.60;81.00;;;;;;5039498;28;19924;-71
2022/10/08 12:19:59;;;;;;;;;;;14.60;81.30;;;;;;5017344;28;20287;-71
2022/10/08 12:22:43;;;;;;;;;;;14.70;81.50;;;;;;5019879;28;19943;-71
2022/10/08 12:25:30;;;;;;;;;;;14.70;81.30;;;;;;5023403;28;19933;-72
2022/10/08 12:28:12;;;;;;;;;;;14.70;81.40;;;;;;5025253;28;19931;-71
2022/10/08 12:30:50;;;;;;;;;;;14.80;81.50;;;;;;5018515;28;19925;-71
2022/10/08 12:33:17;;;;;;;;;;;14.80;81.80;;;;;;5020765;28;19963;-71
2022/10/08 12:35:50;;;;;;;;;;;14.90;81.30;;;;;;5023280;28;19925;-72
2022/10/08 12:38:33;;;;;;;;;;;14.90;81.10;;;;;;5017688;28;19929;-72
2022/10/08 12:41:07;;;;;;;;;;;14.90;80.70;;;;;;5022578;28;19933;-72
2022/10/08 12:43:40;;;;;;;;;;;14.90;80.30;;;;;;5018677;28;19929;-71
2022/10/08 12:46:16;;;;;;;;;;;15.00;80.40;;;;;;5016015;28;20371;-71
2022/10/08 12:48:47;;;;;;;;;;;14.90;80.60;;;;;;5019923;28;19929;-72
2022/10/08 12:51:18;;;;;;;;;;;14.90;81.10;;;;;;5018488;28;20012;-73
2022/10/08 12:53:50;;;;;;;;;;;14.80;81.40;;;;;;5017571;28;19933;-71
2022/10/08 12:56:19;;;;;;;;;;;14.70;81.50;;;;;;5024530;28;19934;-72
2022/10/08 12:58:46;;;;;;;;;;;14.80;81.30;;;;;;5021211;28;19931;-72
2022/10/08 13:01:16;;;;;;;;;;;14.80;81.20;;;;;;5033158;28;20017;-72
2022/10/08 13:03:43;;;;;;;;;;;14.80;81.30;;;;;;5019738;28;20031;-71
2022/10/08 13:06:17;;;;;;;;;;;14.80;81.20;;;;;;5016345;28;19944;-71
2022/10/08 13:08:44;;;;;;;;;;;14.80;81.20;;;;;;5033898;28;19932;-71
2022/10/08 13:11:12;;;;;;;;;;;14.80;81.10;;;;;;5036316;28;19924;-71
2022/10/08 13:13:47;;;;;;;;;;;14.90;81.00;;;;;;5041659;28;19924;-71
2022/10/08 13:16:16;;;;;;;;;;;14.90;80.70;;;;;;5035793;28;19971;-73
2022/10/08 13:18:45;;;;;;;;;;;14.90;80.50;;;;;;5040971;28;19928;-71
2022/10/08 13:21:26;;;;;;;;;;;14.90;80.20;;;;;;5036671;28;19982;-70
2022/10/08 13:23:53;;;;;;;;;;;14.90;80.10;;;;;;5040744;28;20306;-72
2022/10/08 13:26:42;;;;;;;;;;;15.00;79.60;;;;;;5028302;28;19936;-72
2022/10/08 13:29:18;;;;;;;;;;;15.00;78.40;;;;;;5041171;28;19929;-72
2022/10/08 13:31:52;;;;;;;;;;;15.10;78.10;;;;;;5039477;28;19932;-71
2022/10/08 13:34:19;;;;;;;;;;;15.10;78.10;;;;;;5036463;28;19933;-71
2022/10/08 13:36:47;;;;;;;;;;;15.20;77.70;;;;;;5039656;28;20389;-70
2022/10/08 13:39:18;;;;;;;;;;;15.10;77.60;;;;;;5035569;28;19929;-73
2022/10/08 13:41:49;;;;;;;;;;;15.20;77.90;;;;;;5036181;28;20315;-71
2022/10/08 13:44:18;;;;;;;;;;;15.20;77.80;;;;;;5036136;28;24937;-72
2022/10/08 13:46:45;;;;;;;;;;;15.30;77.60;;;;;;5039880;28;20374;-71
2022/10/08 13:49:20;;;;;;;;;;;15.30;77.20;;;;;;5021950;28;19929;-73
2022/10/08 13:51:48;;;;;;;;;;;15.30;76.60;;;;;;5019259;28;20374;-74
2022/10/08 13:54:16;;;;;;;;;;;15.20;75.90;;;;;;5021575;28;19933;-72
2022/10/08 13:56:43;;;;;;;;;;;15.20;75.80;;;;;;5018875;28;19925;-72
2022/10/08 13:59:10;;;;;;;;;;;15.20;75.40;;;;;;5021582;28;19932;-72
2022/10/08 14:01:37;;;;;;;;;;;15.10;75.40;;;;;;5025275;28;19988;-71
2022/10/08 14:04:04;;;;;;;;;;;15.20;75.30;;;;;;5016292;28;19929;-72
2022/10/08 14:06:32;;;;;;;;;;;15.10;74.80;;;;;;5022169;28;19959;-71
2022/10/08 14:08:59;;;;;;;;;;;15.10;75.00;;;;;;5021579;28;19935;-72
2022/10/08 14:11:26;;;;;;;;;;;15.10;75.20;;;;;;5025844;28;20498;-72
2022/10/08 14:13:52;;;;;;;;;;;15.10;74.60;;;;;;5022411;28;20304;-72
2022/10/08 14:16:19;;;;;;;;;;;15.10;74.20;;;;;;5024634;28;19933;-72
2022/10/08 14:18:46;;;;;;;;;;;15.00;73.80;;;;;;5015794;28;19925;-72
2022/10/08 14:21:14;;;;;;;;;;;15.00;73.50;;;;;;5026040;28;19933;-72
2022/10/08 14:23:43;;;;;;;;;;;15.00;72.80;;;;;;5021130;28;19929;-72
2022/10/08 14:26:10;;;;;;;;;;;15.00;72.80;;;;;;5021420;28;19925;-72
2022/10/08 14:28:37;;;;;;;;;;;15.00;72.80;;;;;;5022722;28;19933;-73
2022/10/08 14:31:06;;;;;;;;;;;15.10;73.00;;;;;;5022047;28;19933;-72